createdAt,value
2024-01-03T00:10:50.879Z,92.84
2024-01-03T00:25:48.328Z,94.63
2024-01-03T00:40:51.962Z,95.44
2024-01-03T00:55:49.779Z,90.08
2024-01-03T01:10:41.897Z,84.07
2024-01-03T01:25:34.857Z,81.70
2024-01-03T01:40:25.777Z,83.71
2024-01-03T01:55:16.655Z,90.87
2024-01-03T02:10:09.220Z,91.63
2024-01-03T02:25:01.750Z,91.38
2024-01-03T02:39:53.027Z,92.69
2024-01-03T02:54:44.370Z,94.50
2024-01-03T03:09:36.465Z,93.79
2024-01-03T03:39:19.467Z,93.35
2024-01-03T03:54:10.311Z,89.99
2024-01-03T04:09:02.655Z,85.87
2024-01-03T04:23:54.800Z,83.17
2024-01-03T04:38:46.109Z,81.62
2024-01-03T04:53:37.414Z,79.71
2024-01-03T05:08:28.886Z,79.22
2024-01-03T05:23:20.434Z,79.33
2024-01-03T05:38:11.686Z,80.52
2024-01-03T05:53:03.429Z,75.41
2024-01-03T06:07:55.090Z,76.07
2024-01-03T06:22:45.789Z,78.47
2024-01-03T06:37:36.888Z,78.35
2024-01-03T06:52:27.776Z,79.37
2024-01-03T07:07:19.701Z,81.68
2024-01-03T07:22:10.827Z,81.97
2024-01-03T07:37:02.530Z,80.84
2024-01-03T08:06:46.923Z,78.81
2024-01-03T08:21:40.611Z,80.15
2024-01-03T08:36:38.596Z,79.32
2024-01-03T09:06:29.512Z,79.95
2024-01-03T11:06:13.347Z,88.33
2024-01-03T11:21:29.808Z,82.79
2024-01-03T11:36:45.688Z,80.37
2024-01-03T11:51:43.330Z,76.61
2024-01-03T12:06:34.704Z,74.76
2024-01-03T12:21:26.764Z,84.01
2024-01-03T12:36:17.700Z,84.02
2024-01-03T12:51:10.115Z,78.21
2024-01-03T13:06:04.279Z,74.19
2024-01-03T13:35:47.386Z,70.96
2024-01-03T14:05:29.905Z,73.09
2024-01-03T14:20:21.545Z,75.34
2024-01-03T14:35:13.309Z,76.65
2024-01-03T14:50:05.202Z,75.73
2024-01-03T15:04:57.898Z,72.15
2024-01-03T15:19:50.990Z,70.04
2024-01-03T15:34:42.982Z,73.55
2024-01-03T15:49:35.948Z,76.20
2024-01-03T16:04:32.093Z,80.81
2024-01-03T16:19:20.673Z,86.90
2024-01-03T16:34:11.984Z,86.66
2024-01-03T16:49:03.438Z,92.06
2024-01-03T17:03:54.102Z,97.94
2024-01-03T17:18:44.335Z,100.00
2024-01-03T17:33:34.360Z,100.00
2024-01-03T17:48:25.664Z,100.00
2024-01-03T18:03:18.554Z,99.15
2024-01-03T18:18:10.693Z,100.00
2024-01-03T18:33:02.448Z,100.00
2024-01-03T18:47:54.668Z,100.00
2024-01-03T19:17:36.916Z,97.40
2024-01-03T19:32:27.591Z,94.23
2024-01-03T19:47:18.412Z,92.99
2024-01-03T20:02:10.541Z,89.33
2024-01-03T20:17:01.867Z,88.81
2024-01-03T20:31:53.172Z,87.50
2024-01-03T20:46:44.056Z,84.85
2024-01-03T21:01:34.968Z,83.48
2024-01-03T21:16:27.117Z,80.26
2024-01-03T21:31:20.309Z,78.94
2024-01-03T22:45:31.574Z,82.05
